createdAt,value
2024-01-05T00:02:36.800Z,99574.53
2024-01-05T00:05:21.754Z,99573.56
2024-01-05T00:08:07.413Z,99568.22
2024-01-05T00:10:52.556Z,99570.97
2024-01-05T00:13:37.875Z,99563.38
2024-01-05T00:16:24.224Z,99559.72
2024-01-05T00:19:09.230Z,99549.59
2024-01-05T00:21:54.550Z,99547.91
2024-01-05T00:24:39.237Z,99545.97
2024-01-05T00:27:25.089Z,99547.09
2024-01-05T00:30:11.008Z,99546.34
2024-01-05T00:32:56.700Z,99542.97
2024-01-05T00:35:42.078Z,99533.47
2024-01-05T00:38:26.963Z,99534.38
2024-01-05T00:41:11.966Z,99532.66
2024-01-05T00:43:57.294Z,99523.25
2024-01-05T00:46:42.382Z,99510.44
2024-01-05T00:49:27.581Z,99519.91
2024-01-05T00:52:13.076Z,99492.66
2024-01-05T00:54:58.786Z,99496.03
2024-01-05T00:57:43.733Z,99492.69
2024-01-05T01:00:28.738Z,99491.84
2024-01-05T01:03:14.026Z,99479.97
2024-01-05T01:05:59.554Z,99472.09
2024-01-05T01:08:44.366Z,99458.59
2024-01-05T01:11:29.203Z,99455.81
2024-01-05T01:14:14.247Z,99443.91
2024-01-05T01:16:59.108Z,99441.19
2024-01-05T01:19:44.441Z,99434.25
2024-01-05T01:22:29.665Z,99436.13
2024-01-05T01:25:14.737Z,99439.69
2024-01-05T01:27:59.506Z,99444.78
2024-01-05T01:30:44.517Z,99437.94
2024-01-05T01:33:30.086Z,99435.28
2024-01-05T01:36:15.444Z,99449.75
2024-01-05T01:39:00.567Z,99448.97
2024-01-05T01:41:45.935Z,99440.50
2024-01-05T01:44:30.945Z,99437.13
2024-01-05T01:47:16.236Z,99443.22
2024-01-05T01:50:01.959Z,99442.97
2024-01-05T01:52:48.028Z,99432.91
2024-01-05T01:55:33.109Z,99432.09
2024-01-05T01:58:20.674Z,99421.09
2024-01-05T02:01:07.091Z,99414.16
2024-01-05T02:03:52.718Z,99408.84
2024-01-05T02:06:38.639Z,99402.75
2024-01-05T02:09:24.858Z,99395.19
2024-01-05T02:12:09.937Z,99405.53
2024-01-05T02:14:55.424Z,99399.44
2024-01-05T02:17:40.441Z,99387.53
2024-01-05T02:20:25.778Z,99388.38
2024-01-05T02:23:21.350Z,99385.84
2024-01-05T02:26:06.650Z,99381.44
2024-01-05T02:28:51.987Z,99367.84
2024-01-05T02:31:37.170Z,99349.91
2024-01-05T02:34:22.539Z,99350.72
2024-01-05T02:37:08.022Z,99348.13
2024-01-05T02:39:53.067Z,99346.41
2024-01-05T02:42:39.634Z,99356.72
2024-01-05T02:45:24.924Z,99348.13
2024-01-05T02:48:10.238Z,99350.69
2024-01-05T02:50:55.626Z,99333.44
2024-01-05T02:53:40.503Z,99340.41
2024-01-05T02:56:25.526Z,99340.56
2024-01-05T02:59:10.610Z,99333.56
2024-01-05T03:01:55.597Z,99324.19
2024-01-05T03:04:43.722Z,99319.94
2024-01-05T03:07:28.592Z,99326.78
2024-01-05T03:10:13.643Z,99318.94
2024-01-05T03:12:58.737Z,99319.91
2024-01-05T03:15:43.695Z,99309.59
2024-01-05T03:18:28.801Z,99312.13
2024-01-05T03:21:14.218Z,99301.88
2024-01-05T03:23:59.170Z,99294.06
2024-01-05T03:26:44.777Z,99299.13
2024-01-05T03:29:30.037Z,99289.69
2024-01-05T03:32:15.078Z,99282.06
2024-01-05T03:34:59.976Z,99273.47
2024-01-05T03:37:44.935Z,99276.09
2024-01-05T03:40:29.835Z,99268.44
2024-01-05T03:43:14.933Z,99258.75
2024-01-05T03:45:59.834Z,99251.03
2024-01-05T03:48:45.130Z,99255.47
2024-01-05T03:51:30.634Z,99246.13
2024-01-05T03:54:16.036Z,99240.91
2024-01-05T03:57:01.475Z,99240.16
2024-01-05T03:59:46.753Z,99233.09
2024-01-05T04:02:31.863Z,99228.94
2024-01-05T04:05:16.748Z,99223.75
2024-01-05T04:08:02.298Z,99226.34
2024-01-05T04:10:47.387Z,99228.03
2024-01-05T04:13:32.351Z,99226.31
2024-01-05T04:16:17.415Z,99225.72
2024-01-05T04:19:02.788Z,99233.50
2024-01-05T04:21:48.245Z,99230.97
2024-01-05T04:24:33.184Z,99233.34
2024-01-05T04:27:18.525Z,99229.19
2024-01-05T04:30:03.739Z,99230.97
2024-01-05T04:32:49.817Z,99225.00
2024-01-05T04:35:35.421Z,99230.13
2024-01-05T04:38:20.371Z,99232.81
2024-01-05T04:41:05.542Z,99228.56
2024-01-05T04:43:50.852Z,99222.66
2024-01-05T04:46:35.701Z,99220.03
2024-01-05T04:49:20.917Z,99223.50
2024-01-05T04:52:06.518Z,99215.84
2024-01-05T04:54:51.717Z,99208.19
2024-01-05T04:57:36.754Z,99205.66
2024-01-05T05:00:21.647Z,99208.94
2024-01-05T05:03:06.754Z,99207.34
2024-01-05T05:05:52.060Z,99204.78
2024-01-05T05:08:37.636Z,99198.72
2024-01-05T05:11:22.637Z,99189.19
2024-01-05T05:14:07.648Z,99194.19
2024-01-05T05:16:52.484Z,99190.94
2024-01-05T05:19:37.489Z,99186.72
2024-01-05T05:22:22.833Z,99197.94
2024-01-05T05:25:08.231Z,99194.47
2024-01-05T05:27:53.500Z,99194.50
2024-01-05T05:30:38.547Z,99201.34
2024-01-05T05:33:23.897Z,99192.69
2024-01-05T05:36:09.164Z,99191.81
2024-01-05T05:38:54.076Z,99193.47
2024-01-05T05:41:39.588Z,99180.66
2024-01-05T05:44:24.472Z,99184.09
2024-01-05T05:47:10.376Z,99178.13
2024-01-05T05:49:55.249Z,99176.34
2024-01-05T05:52:41.409Z,99182.44
2024-01-05T05:55:26.654Z,99180.66
2024-01-05T05:58:11.656Z,99180.63
2024-01-05T06:00:56.797Z,99178.16
2024-01-05T06:03:42.180Z,99179.78
2024-01-05T06:06:27.801Z,99172.94
2024-01-05T06:09:12.744Z,99179.81
2024-01-05T06:11:57.577Z,99175.59
2024-01-05T06:14:42.374Z,99184.94
2024-01-05T06:17:27.396Z,99179.78
2024-01-05T06:20:12.956Z,99188.41
2024-01-05T06:22:57.901Z,99181.53
2024-01-05T06:25:43.329Z,99185.84
2024-01-05T06:28:28.554Z,99171.28
2024-01-05T06:31:15.072Z,99182.41
2024-01-05T06:34:03.078Z,99186.66
2024-01-05T06:36:48.594Z,99190.88
2024-01-05T06:39:33.496Z,99189.25
2024-01-05T06:42:18.397Z,99187.63
2024-01-05T06:45:03.598Z,99193.59
2024-01-05T06:47:48.948Z,99188.47
2024-01-05T06:50:37.078Z,99193.47
2024-01-05T06:53:22.677Z,99200.38
2024-01-05T06:56:07.695Z,99194.44
2024-01-05T06:58:52.569Z,99195.25
2024-01-05T07:01:37.550Z,99191.81
2024-01-05T07:04:22.446Z,99190.13
2024-01-05T07:07:07.371Z,99191.78
2024-01-05T07:09:52.275Z,99190.06
2024-01-05T07:12:37.269Z,99186.69
2024-01-05T07:15:22.735Z,99177.41
2024-01-05T07:18:07.990Z,99178.22
2024-01-05T07:20:53.084Z,99183.34
2024-01-05T07:23:38.068Z,99179.09
2024-01-05T07:26:22.920Z,99174.84
2024-01-05T07:29:07.654Z,99179.22
2024-01-05T07:31:52.672Z,99186.78
2024-01-05T07:34:37.689Z,99181.78
2024-01-05T07:37:22.988Z,99180.09
2024-01-05T07:40:08.314Z,99175.72
2024-01-05T07:42:53.214Z,99181.81
2024-01-05T07:45:38.210Z,99183.59
2024-01-05T07:48:23.138Z,99184.41
2024-01-05T07:51:08.983Z,99177.59
2024-01-05T07:53:54.307Z,99179.38
2024-01-05T07:56:39.688Z,99181.97
2024-01-05T07:59:24.908Z,99177.66
2024-01-05T08:02:10.005Z,99170.84
2024-01-05T08:04:55.020Z,99176.00
2024-01-05T08:07:39.874Z,99158.91
2024-01-05T08:10:24.817Z,99144.38
2024-01-05T08:13:09.682Z,99145.25
2024-01-05T08:15:54.588Z,99138.41
2024-01-05T08:18:40.857Z,99137.56
2024-01-05T08:21:26.286Z,99134.97
2024-01-05T08:24:11.290Z,99126.44
2024-01-05T08:26:56.789Z,99139.31
2024-01-05T08:29:42.207Z,99129.91
2024-01-05T08:32:27.158Z,99129.06
2024-01-05T08:35:12.495Z,99129.94
2024-01-05T08:37:57.466Z,99125.66
2024-01-05T08:40:42.345Z,99129.09
2024-01-05T08:43:27.979Z,99120.56
2024-01-05T08:46:12.819Z,99119.72
2024-01-05T08:48:57.908Z,99113.69
2024-01-05T08:51:44.610Z,99104.28
2024-01-05T08:54:30.107Z,99109.44
2024-01-05T08:57:15.033Z,99105.16
2024-01-05T08:59:59.937Z,99102.56
2024-01-05T09:02:44.859Z,99100.00
2024-01-05T09:05:29.672Z,99106.91
2024-01-05T09:08:15.049Z,99103.47
2024-01-05T09:11:00.024Z,99100.06
2024-01-05T09:13:45.004Z,99095.75
2024-01-05T09:16:30.041Z,99094.91
2024-01-05T09:19:14.922Z,99091.50
2024-01-05T09:21:59.832Z,99093.22
2024-01-05T09:24:44.658Z,99096.63
2024-01-05T09:27:29.598Z,99100.06
2024-01-05T09:30:14.793Z,99096.66
2024-01-05T09:32:59.867Z,99094.09
2024-01-05T09:35:44.605Z,99095.81
2024-01-05T09:38:29.980Z,99094.09
2024-01-05T09:41:14.931Z,99098.38
2024-01-05T09:44:01.767Z,99097.59
2024-01-05T09:46:46.957Z,99091.56
2024-01-05T09:49:35.739Z,99089.00
2024-01-05T09:52:21.205Z,99090.72
2024-01-05T09:55:07.022Z,99085.56
2024-01-05T09:57:52.075Z,99077.00
2024-01-05T10:00:39.193Z,99071.84
2024-01-05T10:03:25.209Z,99065.00
2024-01-05T10:06:10.287Z,99060.72
2024-01-05T10:09:00.334Z,99052.13
2024-01-05T10:11:45.685Z,99047.00
2024-01-05T10:14:30.444Z,99027.25
2024-01-05T10:17:15.587Z,99027.25
2024-01-05T10:20:16.902Z,99013.50
2024-01-05T10:23:05.459Z,99015.25
2024-01-05T10:25:51.171Z,98998.91
2024-01-05T10:28:36.025Z,98994.63
2024-01-05T10:31:21.128Z,98985.16
2024-01-05T10:34:08.531Z,98972.28
2024-01-05T10:37:03.906Z,98963.69
2024-01-05T10:39:50.562Z,98955.97
2024-01-05T10:42:35.823Z,98948.22
2024-01-05T10:45:21.311Z,98944.78
2024-01-05T10:48:08.868Z,98928.47
2024-01-05T10:50:56.400Z,98900.09
2024-01-05T10:53:43.834Z,98874.25
2024-01-05T10:56:30.390Z,98866.53
2024-01-05T10:59:15.865Z,98856.19
2024-01-05T11:02:03.353Z,98859.59
2024-01-05T11:04:57.666Z,98845.91
2024-01-05T11:07:44.076Z,98844.13
2024-01-05T11:10:58.356Z,98853.59
2024-01-05T11:14:10.919Z,98861.28
2024-01-05T11:17:02.640Z,98863.91
2024-01-05T11:19:55.964Z,98859.66
2024-01-05T11:22:47.081Z,98836.38
2024-01-05T11:25:32.491Z,98822.59
2024-01-05T11:28:38.187Z,98822.56
2024-01-05T11:31:47.989Z,98823.44
2024-01-05T11:34:35.078Z,98813.13
2024-01-05T11:37:29.091Z,98785.63
2024-01-05T11:40:34.448Z,98783.88
2024-01-05T11:43:32.892Z,98764.09
2024-01-05T11:46:20.501Z,98736.59
2024-01-05T11:49:06.537Z,98748.72
2024-01-05T11:51:51.842Z,98735.78
2024-01-05T11:54:36.842Z,98721.16
2024-01-05T11:57:21.704Z,98747.81
2024-01-05T12:00:07.951Z,98723.06
2024-01-05T12:03:01.244Z,98707.56
2024-01-05T12:05:51.088Z,98689.50
2024-01-05T12:08:36.830Z,98665.41
2024-01-05T12:11:22.093Z,98685.19
2024-01-05T12:14:06.967Z,98714.41
2024-01-05T12:16:51.890Z,98760.00
2024-01-05T12:19:37.578Z,98752.31
2024-01-05T12:22:22.817Z,98715.28
2024-01-05T12:25:07.946Z,98704.91
2024-01-05T12:27:53.937Z,98699.81
2024-01-05T12:30:39.222Z,98703.22
2024-01-05T12:33:28.788Z,98696.34
2024-01-05T12:36:25.000Z,98673.97
2024-01-05T12:39:14.058Z,98667.09
2024-01-05T12:41:59.940Z,98669.63
2024-01-05T12:44:45.163Z,98688.56
2024-01-05T12:47:30.273Z,98698.88
2024-01-05T12:50:26.356Z,98699.81
2024-01-05T12:53:22.134Z,98686.91
2024-01-05T12:56:14.851Z,98677.47
2024-01-05T12:58:59.831Z,98680.09
2024-01-05T13:01:44.872Z,98693.91
2024-01-05T13:04:41.458Z,98715.31
2024-01-05T13:07:27.209Z,98737.75
2024-01-05T13:10:12.201Z,98760.13
2024-01-05T13:12:57.531Z,98779.00
2024-01-05T13:15:42.667Z,98816.88
2024-01-05T13:18:28.339Z,98889.91
2024-01-05T13:21:13.460Z,98904.50
2024-01-05T13:23:58.956Z,98919.97
2024-01-05T13:26:43.937Z,98909.63
2024-01-05T13:29:28.945Z,98907.91
2024-01-05T13:32:14.083Z,98879.59
2024-01-05T13:34:59.332Z,98871.88
2024-01-05T13:37:44.849Z,98842.66
2024-01-05T13:40:29.830Z,98820.34
2024-01-05T13:43:14.788Z,98806.56
2024-01-05T13:45:59.569Z,98813.47
2024-01-05T13:48:44.531Z,98780.78
2024-01-05T13:51:29.512Z,98779.91
2024-01-05T13:54:14.449Z,98773.03
2024-01-05T13:56:59.642Z,98770.47
2024-01-05T13:59:45.344Z,98771.31
2024-01-05T14:02:30.620Z,98755.00
2024-01-05T14:05:15.685Z,98755.84
2024-01-05T14:08:01.053Z,98754.13
2024-01-05T14:10:45.965Z,98747.25
2024-01-05T14:13:32.848Z,98748.97
2024-01-05T14:16:18.268Z,98733.53
2024-01-05T14:19:03.511Z,98730.09
2024-01-05T14:21:48.928Z,98723.22
2024-01-05T14:24:33.834Z,98718.91
2024-01-05T14:27:18.743Z,98731.81
2024-01-05T14:30:04.149Z,98730.94
2024-01-05T14:32:49.229Z,98725.81
2024-01-05T14:35:34.471Z,98737.84
2024-01-05T14:38:19.658Z,98733.50
2024-01-05T14:41:05.019Z,98718.06
2024-01-05T14:43:50.181Z,98742.13
2024-01-05T14:46:35.186Z,98748.16
2024-01-05T14:49:20.362Z,98767.91
2024-01-05T14:52:05.691Z,98766.22
2024-01-05T14:54:51.106Z,98768.81
2024-01-05T14:57:36.279Z,98769.66
2024-01-05T15:00:21.474Z,98780.84
2024-01-05T15:03:07.085Z,98798.91
2024-01-05T15:05:52.258Z,98797.16
2024-01-05T15:08:37.995Z,98796.31
2024-01-05T15:11:23.116Z,98824.66
2024-01-05T15:14:08.317Z,98842.69
2024-01-05T15:16:53.887Z,98877.91
2024-01-05T15:19:38.908Z,98904.50
2024-01-05T15:22:24.273Z,98906.22
2024-01-05T15:25:09.139Z,98915.66
2024-01-05T15:27:56.156Z,98929.38
2024-01-05T15:30:41.649Z,98932.81
2024-01-05T15:33:26.980Z,98939.66
2024-01-05T15:36:18.197Z,98938.81
2024-01-05T15:39:03.745Z,98944.81
2024-01-05T15:41:48.691Z,98962.81
2024-01-05T15:44:33.734Z,98973.13
2024-01-05T15:47:18.640Z,98969.69
2024-01-05T15:50:04.093Z,98985.13
2024-01-05T15:52:49.174Z,98979.13
2024-01-05T15:55:37.960Z,98982.56
2024-01-05T15:58:26.345Z,98989.41
2024-01-05T16:01:12.132Z,98985.13
2024-01-05T16:03:57.287Z,98987.69
2024-01-05T16:06:42.502Z,98979.13
2024-01-05T16:09:27.531Z,98974.00
2024-01-05T16:12:13.142Z,98967.16
2024-01-05T16:14:58.094Z,98956.84
2024-01-05T16:17:43.854Z,98980.00
2024-01-05T16:20:29.043Z,98994.59
2024-01-05T16:23:13.872Z,98984.28
2024-01-05T16:25:58.665Z,98985.13
2024-01-05T16:28:43.521Z,98994.56
2024-01-05T16:31:28.715Z,99015.16
2024-01-05T16:34:14.120Z,99015.09
2024-01-05T16:36:59.368Z,99045.94
2024-01-05T16:39:45.999Z,99052.81
2024-01-05T16:42:31.771Z,99062.25
2024-01-05T16:45:16.651Z,99071.69
2024-01-05T16:48:01.678Z,99077.63
2024-01-05T16:50:47.193Z,99095.66
2024-01-05T16:53:32.387Z,99104.13
2024-01-05T16:56:18.974Z,99094.72
2024-01-05T16:59:04.250Z,99098.16
2024-01-05T17:01:49.166Z,99099.06
2024-01-05T17:04:34.208Z,99096.47
2024-01-05T17:07:19.702Z,99081.91
2024-01-05T17:10:04.844Z,99087.06
2024-01-05T17:12:50.229Z,99081.06
2024-01-05T17:15:35.331Z,99090.53
2024-01-05T17:18:22.862Z,99091.31
2024-01-05T17:21:09.567Z,99087.91
2024-01-05T17:23:54.290Z,99089.66
2024-01-05T17:26:39.910Z,99095.63
2024-01-05T17:29:25.118Z,99092.19
2024-01-05T17:32:10.050Z,99098.16
2024-01-05T17:34:55.022Z,99098.22
2024-01-05T17:37:40.370Z,99096.44
2024-01-05T17:40:25.306Z,99093.91
2024-01-05T17:43:10.211Z,99093.09
2024-01-05T17:45:55.416Z,99102.47
2024-01-05T17:48:40.365Z,99100.72
2024-01-05T17:51:25.829Z,99115.31
2024-01-05T17:54:11.426Z,99125.59
2024-01-05T17:56:57.121Z,99108.50
2024-01-05T17:59:42.372Z,99102.50
2024-01-05T18:02:27.111Z,99099.06
2024-01-05T18:05:12.171Z,99091.38
2024-01-05T18:07:57.099Z,99090.50
2024-01-05T18:10:41.976Z,99098.19
2024-01-05T18:13:26.801Z,99117.91
2024-01-05T18:16:20.668Z,99112.78
2024-01-05T18:19:06.738Z,99135.84
2024-01-05T18:21:51.640Z,99152.84
2024-01-05T18:24:36.981Z,99165.72
2024-01-05T18:27:22.395Z,99164.06
2024-01-05T18:30:08.807Z,99168.41
2024-01-05T18:32:54.242Z,99170.97
2024-01-05T18:35:39.366Z,99176.06
2024-01-05T18:38:24.228Z,99189.75
2024-01-05T18:41:11.402Z,99205.19
2024-01-05T18:43:58.705Z,99211.13
2024-01-05T18:46:44.035Z,99199.97
2024-01-05T18:49:29.609Z,99198.16
2024-01-05T18:52:14.859Z,99233.22
2024-01-05T18:54:59.743Z,99226.28
2024-01-05T18:57:44.905Z,99242.53
2024-01-05T19:00:30.255Z,99255.41
2024-01-05T19:03:15.292Z,99264.75
2024-01-05T19:06:00.092Z,99260.50
2024-01-05T19:08:45.069Z,99268.97
2024-01-05T19:11:30.092Z,99283.41
2024-01-05T19:14:15.065Z,99281.53
2024-01-05T19:17:00.080Z,99288.34
2024-01-05T19:19:45.061Z,99286.53
2024-01-05T19:22:30.432Z,99289.91
2024-01-05T19:25:15.783Z,99288.09
2024-01-05T19:28:00.689Z,99297.50
2024-01-05T19:30:45.653Z,99297.50
2024-01-05T19:33:31.310Z,99303.50
2024-01-05T19:36:16.567Z,99304.34
2024-01-05T19:39:01.363Z,99309.31
2024-01-05T19:41:47.208Z,99306.66
2024-01-05T19:44:32.038Z,99300.72
2024-01-05T19:47:16.950Z,99313.50
2024-01-05T19:50:01.932Z,99307.53
2024-01-05T19:52:47.246Z,99299.78
2024-01-05T19:55:32.311Z,99304.91
2024-01-05T19:58:17.258Z,99304.94
2024-01-05T20:01:02.519Z,99310.06
2024-01-05T20:03:47.898Z,99312.59
2024-01-05T20:06:33.446Z,99310.84
2024-01-05T20:09:19.357Z,99313.38
2024-01-05T20:12:05.024Z,99310.84
2024-01-05T20:14:50.225Z,99317.66
2024-01-05T20:17:34.987Z,99314.31
2024-01-05T20:20:20.004Z,99315.16
2024-01-05T20:23:04.872Z,99312.59
2024-01-05T20:25:49.886Z,99316.97
2024-01-05T20:28:34.884Z,99310.06
2024-01-05T20:31:20.576Z,99314.34
2024-01-05T20:34:05.955Z,99325.53
2024-01-05T20:36:51.206Z,99310.13
2024-01-05T20:39:36.179Z,99310.13
2024-01-05T20:42:21.184Z,99314.44
2024-01-05T20:45:07.172Z,99320.47
2024-01-05T20:47:52.206Z,99309.38
2024-01-05T20:50:36.963Z,99312.81
2024-01-05T20:53:22.001Z,99311.00
2024-01-05T20:56:07.140Z,99309.31
2024-01-05T20:58:52.219Z,99307.63
2024-01-05T21:01:41.363Z,99316.22
2024-01-05T21:04:26.712Z,99317.91
2024-01-05T21:07:12.172Z,99319.69
2024-01-05T21:09:57.597Z,99326.41
2024-01-05T21:12:42.522Z,99331.59
2024-01-05T21:15:27.934Z,99335.03
2024-01-05T21:18:13.277Z,99344.41
2024-01-05T21:21:01.093Z,99341.81
2024-01-05T21:23:47.852Z,99346.09
2024-01-05T21:26:32.958Z,99353.66
2024-01-05T21:29:17.964Z,99355.41
2024-01-05T21:32:02.908Z,99355.41
2024-01-05T21:34:48.023Z,99355.41
2024-01-05T21:37:33.245Z,99352.81
2024-01-05T21:40:18.253Z,99355.47
2024-01-05T21:43:03.168Z,99352.84
2024-01-05T21:45:48.295Z,99366.59
2024-01-05T21:48:33.688Z,99366.59
2024-01-05T21:51:19.019Z,99363.06
2024-01-05T21:54:04.607Z,99370.72
2024-01-05T21:56:49.665Z,99375.91
2024-01-05T21:59:34.931Z,99372.56
2024-01-05T22:02:20.031Z,99379.31
2024-01-05T22:05:05.063Z,99383.66
2024-01-05T22:07:50.159Z,99382.72
2024-01-05T22:10:35.166Z,99390.41
2024-01-05T22:13:20.738Z,99388.66
2024-01-05T22:16:06.630Z,99397.22
2024-01-05T22:18:51.755Z,99398.19
2024-01-05T22:21:37.151Z,99406.63
2024-01-05T22:24:22.468Z,99409.25
2024-01-05T22:27:07.488Z,99406.75
2024-01-05T22:29:52.800Z,99414.50
2024-01-05T22:32:39.499Z,99420.44
2024-01-05T22:35:24.773Z,99423.94
2024-01-05T22:38:09.801Z,99415.38
2024-01-05T22:40:55.284Z,99417.09
2024-01-05T22:43:41.717Z,99417.81
2024-01-05T22:46:26.698Z,99421.28
2024-01-05T22:49:11.762Z,99417.81
2024-01-05T22:51:57.111Z,99432.38
2024-01-05T22:54:42.206Z,99432.31
2024-01-05T22:57:27.601Z,99428.91
2024-01-05T23:00:13.096Z,99433.41
2024-01-05T23:02:57.971Z,99430.66
2024-01-05T23:05:42.890Z,99422.97
2024-01-05T23:08:28.335Z,99431.47
2024-01-05T23:11:13.323Z,99434.97
2024-01-05T23:13:58.266Z,99429.84
2024-01-05T23:16:43.120Z,99434.03
2024-01-05T23:19:28.688Z,99429.75
2024-01-05T23:22:14.098Z,99441.69
2024-01-05T23:24:59.056Z,99432.47
2024-01-05T23:27:44.048Z,99431.47
2024-01-05T23:30:28.978Z,99437.47
2024-01-05T23:33:14.568Z,99445.97
2024-01-05T23:36:00.775Z,99442.69
2024-01-05T23:38:45.907Z,99441.88
2024-01-05T23:41:30.857Z,99451.19
2024-01-05T23:44:15.839Z,99452.00
2024-01-05T23:47:01.431Z,99451.84
2024-01-05T23:49:46.617Z,99453.44
2024-01-05T23:52:31.538Z,99447.56
2024-01-05T23:55:16.628Z,99433.00
2024-01-05T23:58:01.980Z,99425.44
